createdAt,value
2022-10-25T00:01:32.861Z,65.99
2022-10-25T00:04:00.013Z,65.94
2022-10-25T00:06:36.795Z,65.83
2022-10-25T00:09:13.157Z,65.93
2022-10-25T00:11:40.482Z,65.83
2022-10-25T00:14:09.039Z,65.78
2022-10-25T00:16:38.724Z,65.79
2022-10-25T00:19:06.620Z,65.77
2022-10-25T00:21:33.838Z,65.71
2022-10-25T00:24:00.992Z,65.68
2022-10-25T00:26:28.146Z,65.60
2022-10-25T00:28:55.814Z,65.58
2022-10-25T00:31:24.745Z,65.52
2022-10-25T00:33:52.397Z,65.47
2022-10-25T00:36:26.210Z,65.31
2022-10-25T00:38:57.063Z,65.44
2022-10-25T00:41:32.447Z,65.37
2022-10-25T00:44:36.396Z,65.44
2022-10-25T00:47:47.365Z,65.39
2022-10-25T00:50:40.193Z,65.35
2022-10-25T00:53:17.877Z,65.38
2022-10-25T00:55:54.477Z,65.83
2022-10-25T00:58:28.736Z,65.68
2022-10-25T01:00:56.505Z,65.76
2022-10-25T01:03:25.590Z,65.83
2022-10-25T01:05:54.897Z,66.00
2022-10-25T01:08:22.792Z,65.97
2022-10-25T01:10:50.707Z,65.94
2022-10-25T01:13:18.453Z,65.97
2022-10-25T01:16:01.441Z,66.05
2022-10-25T01:18:47.921Z,65.88
2022-10-25T01:21:47.495Z,65.95
2022-10-25T01:25:07.845Z,65.96
2022-10-25T01:28:20.517Z,66.07
2022-10-25T01:31:38.540Z,66.00
2022-10-25T01:34:23.905Z,65.96
2022-10-25T01:37:16.595Z,65.75
2022-10-25T01:40:29.665Z,65.63
2022-10-25T01:43:35.241Z,65.42
2022-10-25T01:46:29.232Z,65.45
2022-10-25T01:49:05.089Z,65.29
2022-10-25T01:51:36.996Z,65.13
2022-10-25T01:54:18.407Z,64.76
2022-10-25T01:57:34.883Z,65.10
2022-10-25T02:00:22.639Z,65.25
2022-10-25T02:03:37.857Z,65.13
2022-10-25T02:06:29.255Z,64.93
2022-10-25T02:09:18.886Z,65.24
2022-10-25T02:11:47.972Z,65.23
2022-10-25T02:14:41.693Z,65.04
2022-10-25T02:17:25.684Z,65.22
2022-10-25T02:20:00.659Z,65.09
2022-10-25T02:22:32.263Z,64.92
2022-10-25T02:25:01.442Z,64.96
2022-10-25T02:27:30.866Z,64.82
2022-10-25T02:29:59.837Z,65.09
2022-10-25T02:32:27.685Z,65.08
2022-10-25T02:34:55.167Z,64.80
2022-10-25T02:37:22.394Z,64.80
2022-10-25T02:39:51.547Z,64.84
2022-10-25T02:42:18.726Z,64.95
2022-10-25T02:44:45.879Z,64.97
2022-10-25T02:47:13.143Z,65.06
2022-10-25T02:49:40.575Z,65.00
2022-10-25T02:52:07.753Z,65.14
2022-10-25T02:54:34.876Z,65.28
2022-10-25T02:57:02.285Z,65.33
2022-10-25T02:59:29.477Z,65.16
2022-10-25T03:01:56.842Z,65.44
2022-10-25T03:04:24.202Z,65.38
2022-10-25T03:06:51.418Z,65.20
2022-10-25T03:09:18.669Z,65.15
2022-10-25T03:11:45.822Z,65.05
2022-10-25T03:14:13.232Z,64.75
2022-10-25T03:16:40.611Z,65.04
2022-10-25T03:19:07.861Z,64.68
2022-10-25T03:21:37.610Z,64.79
2022-10-25T03:24:07.631Z,64.89
2022-10-25T03:26:34.759Z,64.78
2022-10-25T03:29:01.901Z,64.64
2022-10-25T03:31:29.309Z,64.59
2022-10-25T03:33:56.514Z,64.54
2022-10-25T03:36:23.791Z,64.40
2022-10-25T03:38:50.965Z,64.48
2022-10-25T03:41:18.185Z,64.84
2022-10-25T03:43:45.528Z,64.58
2022-10-25T03:46:12.687Z,64.42
2022-10-25T03:48:39.875Z,64.71
2022-10-25T03:51:07.145Z,64.68
2022-10-25T03:53:34.318Z,64.74
2022-10-25T03:56:01.572Z,64.72
2022-10-25T03:58:28.753Z,64.75
2022-10-25T04:00:56.038Z,64.61
2022-10-25T04:03:23.287Z,64.81
2022-10-25T04:05:50.498Z,64.59
2022-10-25T04:08:17.726Z,64.73
2022-10-25T04:10:45.029Z,64.90
2022-10-25T04:13:12.185Z,64.69
2022-10-25T04:15:39.426Z,64.89
2022-10-25T04:18:06.655Z,64.92
2022-10-25T04:20:33.801Z,64.81
2022-10-25T04:23:01.027Z,64.98
2022-10-25T04:25:29.049Z,65.40
2022-10-25T04:27:59.212Z,65.37
2022-10-25T04:30:26.677Z,65.23
2022-10-25T04:32:53.843Z,65.35
2022-10-25T04:35:20.944Z,65.28
2022-10-25T04:37:48.183Z,65.01
2022-10-25T04:40:15.446Z,65.01
2022-10-25T04:42:42.726Z,65.26
2022-10-25T04:45:10.412Z,65.31
2022-10-25T04:47:37.685Z,65.29
2022-10-25T04:50:06.427Z,65.50
2022-10-25T04:52:33.734Z,65.04
2022-10-25T04:55:01.039Z,65.26
2022-10-25T04:57:28.422Z,65.31
2022-10-25T04:59:55.643Z,65.16
2022-10-25T05:02:23.121Z,65.05
2022-10-25T05:04:50.297Z,65.36
2022-10-25T05:07:19.629Z,65.19
2022-10-25T05:09:47.628Z,65.44
2022-10-25T05:12:15.788Z,65.39
2022-10-25T05:14:43.231Z,65.55
2022-10-25T05:17:10.392Z,65.63
2022-10-25T05:19:37.660Z,65.58
2022-10-25T05:22:05.188Z,65.69
2022-10-25T05:24:32.383Z,65.88
2022-10-25T05:26:59.571Z,65.88
2022-10-25T05:29:26.878Z,65.75
2022-10-25T05:31:54.088Z,65.98
2022-10-25T05:34:21.282Z,65.46
2022-10-25T05:36:48.588Z,65.69
2022-10-25T05:39:15.722Z,65.53
2022-10-25T05:41:42.914Z,65.73
2022-10-25T05:44:11.018Z,65.56
2022-10-25T05:46:38.181Z,65.68
2022-10-25T05:49:05.366Z,65.61
2022-10-25T05:51:35.124Z,65.27
2022-10-25T05:54:05.669Z,65.21
2022-10-25T05:56:36.081Z,65.25
2022-10-25T05:59:11.695Z,65.24
2022-10-25T06:01:42.819Z,65.23
2022-10-25T06:04:11.295Z,65.09
2022-10-25T06:06:41.527Z,64.97
2022-10-25T06:09:10.287Z,65.00
2022-10-25T06:11:39.021Z,65.11
2022-10-25T06:14:07.380Z,65.07
2022-10-25T06:16:34.555Z,65.04
2022-10-25T06:19:01.741Z,65.36
2022-10-25T06:21:30.113Z,65.11
2022-10-25T06:23:59.346Z,65.17
2022-10-25T06:26:30.138Z,65.10
2022-10-25T06:29:04.261Z,64.89
2022-10-25T06:31:33.113Z,64.90
2022-10-25T06:34:02.056Z,64.65
2022-10-25T06:36:31.149Z,64.50
2022-10-25T06:39:03.758Z,64.67
2022-10-25T06:41:33.251Z,64.71
2022-10-25T06:44:05.378Z,64.68
2022-10-25T06:47:04.548Z,64.75
2022-10-25T06:49:24.861Z,64.40
2022-10-25T06:51:52.012Z,64.79
2022-10-25T06:54:19.790Z,64.67
2022-10-25T06:56:46.948Z,64.43
2022-10-25T06:59:14.204Z,64.38
2022-10-25T07:01:41.440Z,64.37
2022-10-25T07:04:08.703Z,64.55
2022-10-25T07:06:36.352Z,64.38
2022-10-25T07:09:05.686Z,64.19
2022-10-25T07:11:33.773Z,64.40
2022-10-25T07:14:01.827Z,64.31
2022-10-25T07:16:29.485Z,64.39
2022-10-25T07:19:04.523Z,64.23
2022-10-25T07:21:33.137Z,64.21
2022-10-25T07:24:00.645Z,64.40
2022-10-25T07:26:31.635Z,64.20
2022-10-25T07:29:00.929Z,64.29
2022-10-25T07:31:32.647Z,64.04
2022-10-25T07:34:02.455Z,63.87
2022-10-25T07:36:29.939Z,63.79
2022-10-25T07:38:57.771Z,63.73
2022-10-25T07:41:25.961Z,64.08
2022-10-25T07:43:53.275Z,64.25
2022-10-25T07:46:20.463Z,63.94
2022-10-25T07:48:47.698Z,64.11
2022-10-25T07:51:17.092Z,64.04
2022-10-25T07:53:44.278Z,63.91
2022-10-25T07:56:20.685Z,63.85
2022-10-25T07:58:52.857Z,63.88
2022-10-25T08:01:24.944Z,63.84
2022-10-25T08:03:54.233Z,63.75
2022-10-25T08:06:25.753Z,63.63
2022-10-25T08:08:53.753Z,63.38
2022-10-25T08:11:21.277Z,63.26
2022-10-25T08:13:50.051Z,63.17
2022-10-25T08:16:17.633Z,63.08
2022-10-25T08:18:44.949Z,63.47
2022-10-25T08:21:12.229Z,63.20
2022-10-25T08:23:39.433Z,63.13
2022-10-25T08:26:07.016Z,63.14
2022-10-25T08:28:34.332Z,63.14
2022-10-25T08:31:01.927Z,63.01
2022-10-25T08:33:30.024Z,62.79
2022-10-25T08:36:01.739Z,62.62
2022-10-25T08:38:29.527Z,62.67
2022-10-25T08:41:26.713Z,62.60
2022-10-25T08:44:10.121Z,63.02
2022-10-25T08:46:59.413Z,62.71
2022-10-25T08:49:53.859Z,62.76
2022-10-25T08:52:40.185Z,62.79
2022-10-25T08:55:17.992Z,62.67
2022-10-25T08:57:48.129Z,62.22
2022-10-25T09:00:25.032Z,62.09
2022-10-25T09:02:58.942Z,61.69
2022-10-25T09:05:39.692Z,61.70
2022-10-25T09:08:49.661Z,61.50
2022-10-25T09:11:31.043Z,61.16
2022-10-25T09:14:31.815Z,61.13
2022-10-25T09:17:35.607Z,60.27
2022-10-25T09:20:21.811Z,60.16
2022-10-25T09:22:58.352Z,60.00
2022-10-25T09:25:44.326Z,60.26
2022-10-25T09:28:34.086Z,60.04
2022-10-25T09:31:04.921Z,59.49
2022-10-25T09:33:34.737Z,58.97
2022-10-25T09:36:05.261Z,58.89
2022-10-25T09:38:59.101Z,58.47
2022-10-25T09:41:38.624Z,58.77
2022-10-25T09:44:40.925Z,58.66
2022-10-25T09:47:43.551Z,59.11
2022-10-25T09:50:35.568Z,59.18
2022-10-25T09:53:14.914Z,58.99
2022-10-25T09:55:59.449Z,58.76
2022-10-25T09:58:33.237Z,58.49
2022-10-25T10:01:28.452Z,58.02
2022-10-25T10:04:19.191Z,57.60
2022-10-25T10:06:47.005Z,57.30
2022-10-25T10:09:16.633Z,57.50
2022-10-25T10:11:47.076Z,57.75
2022-10-25T10:14:30.969Z,57.93
2022-10-25T10:17:01.117Z,58.01
2022-10-25T10:19:29.941Z,58.06
2022-10-25T10:22:17.737Z,58.26
2022-10-25T10:24:59.119Z,58.14
2022-10-25T10:27:29.167Z,58.19
2022-10-25T10:30:08.312Z,58.53
2022-10-25T10:35:34.012Z,58.88
2022-10-25T10:38:26.198Z,59.03
2022-10-25T10:41:31.903Z,59.32
2022-10-25T10:44:14.271Z,59.69
2022-10-25T10:46:46.265Z,58.84
2022-10-25T10:49:18.632Z,58.09
2022-10-25T10:51:46.581Z,56.99
2022-10-25T10:54:37.965Z,56.59
2022-10-25T10:57:21.748Z,57.11
2022-10-25T11:00:00.121Z,57.57
2022-10-25T11:05:32.939Z,57.13
2022-10-25T11:08:19.737Z,57.01
2022-10-25T11:10:47.029Z,55.95
2022-10-25T11:13:17.233Z,54.95
2022-10-25T11:16:18.906Z,53.87
2022-10-25T11:18:54.009Z,51.60
2022-10-25T11:21:42.056Z,48.44
2022-10-25T11:24:28.170Z,45.44
2022-10-25T11:27:18.070Z,42.19
2022-10-25T11:29:51.016Z,40.33
2022-10-25T11:32:24.716Z,38.69
2022-10-25T11:35:37.461Z,36.69
2022-10-25T11:38:39.194Z,35.28
2022-10-25T11:41:25.889Z,34.38
2022-10-25T11:44:45.778Z,33.57
2022-10-25T11:47:43.331Z,32.97
2022-10-25T11:50:48.769Z,32.76
2022-10-25T11:53:46.482Z,33.03
2022-10-25T11:56:56.971Z,31.48
2022-10-25T11:59:51.758Z,31.68
2022-10-25T12:03:18.953Z,31.64
2022-10-25T12:06:18.644Z,32.69
2022-10-25T12:09:12.429Z,33.47
2022-10-25T12:11:58.536Z,33.62
2022-10-25T12:14:36.201Z,33.25
2022-10-25T12:17:07.749Z,35.23
2022-10-25T12:19:46.100Z,36.12
2022-10-25T12:22:27.714Z,36.91
2022-10-25T12:25:18.547Z,37.12
2022-10-25T12:27:55.791Z,38.12
2022-10-25T12:30:24.000Z,39.11
2022-10-25T12:33:10.593Z,39.70
2022-10-25T12:35:49.955Z,40.56
2022-10-25T12:38:43.420Z,42.17
2022-10-25T12:41:24.003Z,43.03
2022-10-25T12:44:39.216Z,43.88
2022-10-25T12:47:12.395Z,45.09
2022-10-25T12:49:52.035Z,45.40
2022-10-25T12:52:34.641Z,46.27
2022-10-25T12:55:27.300Z,46.98
2022-10-25T12:58:25.061Z,47.85
2022-10-25T13:01:13.574Z,48.97
2022-10-25T13:04:30.903Z,49.59
2022-10-25T13:07:00.011Z,49.21
2022-10-25T13:09:34.368Z,49.58
2022-10-25T13:12:19.146Z,49.77
2022-10-25T13:14:55.011Z,49.84
2022-10-25T13:17:22.110Z,49.86
2022-10-25T13:19:55.574Z,50.22
2022-10-25T13:22:40.743Z,50.54
2022-10-25T13:25:14.032Z,50.74
2022-10-25T13:28:16.117Z,51.03
2022-10-25T13:30:45.330Z,51.87
2022-10-25T13:33:19.066Z,52.37
2022-10-25T13:35:49.316Z,52.75
2022-10-25T13:38:39.978Z,53.08
2022-10-25T13:41:09.992Z,53.47
2022-10-25T13:44:03.901Z,53.89
2022-10-25T13:46:41.714Z,54.13
2022-10-25T13:49:37.544Z,54.19
2022-10-25T13:52:29.801Z,54.67
2022-10-25T13:54:58.189Z,54.82
2022-10-25T13:57:49.161Z,55.13
2022-10-25T14:00:35.597Z,55.17
2022-10-25T14:03:10.029Z,55.55
2022-10-25T14:05:55.456Z,55.82
2022-10-25T14:08:44.299Z,56.10
2022-10-25T14:11:36.345Z,56.21
2022-10-25T14:14:11.155Z,56.70
2022-10-25T14:17:14.563Z,56.84
2022-10-25T14:19:48.381Z,56.73
2022-10-25T14:22:35.821Z,56.89
2022-10-25T14:25:20.042Z,57.20
2022-10-25T14:27:47.244Z,57.65
2022-10-25T14:30:30.492Z,57.98
2022-10-25T14:33:20.268Z,58.20
2022-10-25T14:36:10.334Z,58.44
2022-10-25T14:39:03.574Z,58.28
2022-10-25T14:41:35.966Z,58.45
2022-10-25T14:44:19.815Z,58.67
2022-10-25T14:46:47.039Z,58.89
2022-10-25T14:49:14.534Z,58.88
2022-10-25T14:51:44.076Z,58.95
2022-10-25T14:54:31.561Z,59.05
2022-10-25T14:57:08.353Z,59.05
2022-10-25T14:59:50.188Z,59.28
2022-10-25T15:02:20.397Z,59.33
2022-10-25T15:04:51.125Z,59.46
2022-10-25T15:07:28.939Z,59.49
2022-10-25T15:09:59.895Z,59.63
2022-10-25T15:12:32.362Z,59.57
2022-10-25T15:15:32.498Z,59.64
2022-10-25T15:21:06.495Z,59.57
2022-10-25T15:23:35.000Z,59.74
2022-10-25T15:26:30.024Z,59.62
2022-10-25T15:29:01.864Z,59.96
2022-10-25T15:31:32.441Z,60.13
2022-10-25T15:34:04.374Z,60.15
2022-10-25T15:36:34.721Z,60.36
2022-10-25T15:39:17.157Z,60.39
2022-10-25T15:41:47.036Z,60.56
2022-10-25T15:44:14.500Z,60.36
2022-10-25T15:46:41.837Z,60.22
2022-10-25T15:49:13.294Z,60.33
2022-10-25T15:51:45.290Z,60.32
2022-10-25T15:54:21.095Z,60.41
2022-10-25T15:56:49.990Z,60.42
2022-10-25T15:59:29.753Z,60.75
2022-10-25T16:01:57.295Z,60.54
2022-10-25T16:04:28.264Z,60.87
2022-10-25T16:06:55.681Z,60.60
2022-10-25T16:09:22.945Z,60.64
2022-10-25T16:11:54.485Z,60.68
2022-10-25T16:14:27.335Z,60.75
2022-10-25T16:16:55.152Z,60.69
2022-10-25T16:19:22.786Z,60.61
2022-10-25T16:21:49.945Z,60.62
2022-10-25T16:24:17.410Z,60.94
2022-10-25T16:26:48.266Z,60.99
2022-10-25T16:29:16.160Z,60.95
2022-10-25T16:31:44.105Z,61.05
2022-10-25T16:34:12.292Z,61.17
2022-10-25T16:36:39.894Z,61.20
2022-10-25T16:39:07.707Z,61.12
2022-10-25T16:41:40.114Z,61.20
2022-10-25T16:44:11.217Z,60.95
2022-10-25T16:46:40.029Z,61.23
2022-10-25T16:49:07.335Z,61.32
2022-10-25T16:51:35.937Z,61.30
2022-10-25T16:54:03.707Z,61.34
2022-10-25T16:56:31.642Z,61.18
2022-10-25T16:58:58.940Z,61.25
2022-10-25T17:01:34.231Z,61.39
2022-10-25T17:04:04.572Z,61.22
2022-10-25T17:06:47.222Z,61.20
2022-10-25T17:09:16.865Z,61.52
2022-10-25T17:11:45.647Z,61.32
2022-10-25T17:14:13.549Z,61.35
2022-10-25T17:16:44.694Z,61.33
2022-10-25T17:19:12.885Z,61.29
2022-10-25T17:21:40.862Z,61.02
2022-10-25T17:24:08.446Z,60.94
2022-10-25T17:26:36.899Z,61.08
2022-10-25T17:29:04.811Z,61.41
2022-10-25T17:31:35.671Z,61.35
2022-10-25T17:34:04.813Z,61.30
2022-10-25T17:36:32.418Z,61.05
2022-10-25T17:39:01.160Z,60.77
2022-10-25T17:41:29.970Z,60.93
2022-10-25T17:44:00.103Z,61.27
2022-10-25T17:46:32.362Z,61.20
2022-10-25T17:49:02.070Z,61.05
2022-10-25T17:51:31.148Z,61.11
2022-10-25T17:54:01.723Z,61.15
2022-10-25T17:56:29.252Z,61.04
2022-10-25T17:58:57.918Z,61.13
2022-10-25T18:01:28.150Z,61.22
2022-10-25T18:03:55.969Z,61.21
2022-10-25T18:06:26.729Z,61.56
2022-10-25T18:08:57.879Z,61.45
2022-10-25T18:11:27.687Z,61.19
2022-10-25T18:13:58.346Z,61.46
2022-10-25T18:16:27.007Z,61.55
2022-10-25T18:18:57.285Z,61.65
2022-10-25T18:21:25.747Z,61.50
2022-10-25T18:23:58.232Z,61.53
2022-10-25T18:26:26.665Z,61.73
2022-10-25T18:28:54.225Z,61.88
2022-10-25T18:31:21.390Z,61.74
2022-10-25T18:33:48.771Z,62.10
2022-10-25T18:36:19.951Z,62.00
2022-10-25T18:38:48.502Z,62.07
2022-10-25T18:41:31.761Z,61.85
2022-10-25T18:43:59.965Z,61.93
2022-10-25T18:46:27.851Z,61.74
2022-10-25T18:48:55.731Z,61.54
2022-10-25T18:51:25.488Z,61.59
2022-10-25T18:53:57.810Z,61.65
2022-10-25T18:56:25.774Z,61.45
2022-10-25T18:58:54.498Z,61.59
2022-10-25T19:01:24.426Z,61.50
2022-10-25T19:03:52.450Z,61.49
2022-10-25T19:06:19.791Z,61.42
2022-10-25T19:08:47.068Z,60.97
2022-10-25T19:11:14.721Z,60.91
2022-10-25T19:13:45.108Z,60.81
2022-10-25T19:16:14.721Z,60.73
2022-10-25T19:18:42.002Z,60.94
2022-10-25T19:21:12.608Z,61.17
2022-10-25T19:23:41.077Z,60.96
2022-10-25T19:26:13.565Z,61.00
2022-10-25T19:28:40.803Z,61.17
2022-10-25T19:31:13.144Z,60.99
2022-10-25T19:33:48.277Z,60.76
2022-10-25T19:36:17.399Z,60.77
2022-10-25T19:38:45.319Z,60.93
2022-10-25T19:41:17.817Z,60.83
2022-10-25T19:43:45.510Z,60.76
2022-10-25T19:46:13.712Z,60.32
2022-10-25T19:48:42.129Z,60.49
2022-10-25T19:51:22.390Z,60.39
2022-10-25T19:53:49.648Z,60.75
2022-10-25T19:56:22.872Z,60.57
2022-10-25T19:58:51.079Z,60.45
2022-10-25T20:01:25.700Z,60.38
2022-10-25T20:03:55.128Z,60.28
2022-10-25T20:06:26.895Z,60.12
2022-10-25T20:08:56.176Z,60.12
2022-10-25T20:11:27.153Z,59.85
2022-10-25T20:14:00.636Z,59.81
2022-10-25T20:16:29.462Z,59.85
2022-10-25T20:18:59.349Z,59.71
2022-10-25T20:21:34.960Z,59.64
2022-10-25T20:24:08.325Z,59.79
2022-10-25T20:26:39.762Z,59.76
2022-10-25T20:29:27.132Z,59.70
2022-10-25T20:31:54.236Z,59.67
2022-10-25T20:34:21.485Z,59.38
2022-10-25T20:36:49.560Z,59.41
2022-10-25T20:39:17.202Z,59.59
2022-10-25T20:41:44.530Z,59.52
2022-10-25T20:44:12.078Z,59.92
2022-10-25T20:46:39.296Z,59.38
2022-10-25T20:49:06.455Z,59.34
2022-10-25T20:51:34.363Z,59.69
2022-10-25T20:54:01.905Z,59.42
2022-10-25T20:56:29.386Z,59.49
2022-10-25T20:58:56.927Z,59.40
2022-10-25T21:01:24.519Z,59.43
2022-10-25T21:03:52.030Z,59.35
2022-10-25T21:06:19.612Z,59.28
2022-10-25T21:08:47.092Z,59.34
2022-10-25T21:11:14.831Z,59.53
2022-10-25T21:13:42.482Z,59.56
2022-10-25T21:16:12.951Z,59.58
2022-10-25T21:18:41.787Z,59.53
2022-10-25T21:21:18.221Z,59.66
2022-10-25T21:23:47.251Z,59.73
2022-10-25T21:26:15.236Z,59.85
2022-10-25T21:28:43.177Z,60.07
2022-10-25T21:31:13.247Z,59.93
2022-10-25T21:33:49.366Z,59.88
2022-10-25T21:36:18.994Z,59.74
2022-10-25T21:38:46.789Z,59.79
2022-10-25T21:41:17.718Z,59.59
2022-10-25T21:43:47.483Z,59.26
2022-10-25T21:46:17.215Z,59.16
2022-10-25T21:48:45.429Z,59.29
2022-10-25T21:51:13.012Z,59.16
2022-10-25T21:53:40.766Z,59.31
2022-10-25T21:56:13.995Z,59.81
2022-10-25T21:58:43.256Z,59.71
2022-10-25T22:01:13.430Z,59.77
2022-10-25T22:03:41.420Z,59.80
2022-10-25T22:06:11.125Z,59.93
2022-10-25T22:08:39.498Z,59.82
2022-10-25T22:11:11.488Z,59.72
2022-10-25T22:13:39.079Z,59.89
2022-10-25T22:16:13.219Z,59.32
2022-10-25T22:18:42.084Z,59.65
2022-10-25T22:21:12.323Z,59.70
2022-10-25T22:23:40.419Z,59.91
2022-10-25T22:26:10.664Z,59.94
2022-10-25T22:28:40.982Z,59.94
2022-10-25T22:31:14.882Z,59.81
2022-10-25T22:33:43.351Z,59.94
2022-10-25T22:36:12.695Z,59.85
2022-10-25T22:38:40.272Z,59.78
2022-10-25T22:41:12.572Z,59.67
2022-10-25T22:43:41.102Z,59.62
2022-10-25T22:46:23.540Z,60.06
2022-10-25T22:48:52.475Z,59.78
2022-10-25T22:51:21.148Z,59.61
2022-10-25T22:53:48.731Z,59.44
2022-10-25T22:56:24.150Z,59.41
2022-10-25T22:58:54.498Z,59.32
2022-10-25T23:01:24.836Z,59.36
2022-10-25T23:03:55.008Z,59.20
2022-10-25T23:06:28.043Z,59.41
2022-10-25T23:09:00.618Z,59.81
2022-10-25T23:11:36.903Z,60.04
2022-10-25T23:14:05.301Z,59.89
2022-10-25T23:16:32.844Z,59.86
2022-10-25T23:19:00.388Z,59.97
2022-10-25T23:21:29.461Z,60.15
2022-10-25T23:23:58.301Z,60.13
2022-10-25T23:26:29.902Z,60.11
2022-10-25T23:28:58.179Z,60.25
2022-10-25T23:31:26.379Z,60.15
2022-10-25T23:33:55.905Z,60.27
2022-10-25T23:36:25.918Z,60.39
2022-10-25T23:38:54.922Z,60.29
2022-10-25T23:41:23.452Z,60.09
2022-10-25T23:43:51.365Z,60.09
2022-10-25T23:46:18.902Z,60.13
2022-10-25T23:48:46.720Z,60.28
2022-10-25T23:51:18.804Z,60.47
2022-10-25T23:53:46.349Z,60.61
2022-10-25T23:56:14.763Z,60.56
2022-10-25T23:58:42.535Z,60.67
